NH62 weather

Millipore Heliport
Jaffrey, New Hampshire, United States

Public forecast

Using degrees Fahrenheit for public forecast. Weather courtesy of forecast.io.

METAR (pilot weather report)

Closest report is Jaffrey Airport Silver Ranch Airport, 1.0 nm (1.8 km) WNW. Retrieved 2019/07/21 05:52 UTC (29 minutes ago):

KAFN 210552Z AUTO 19004KT 10SM CLR 24/19 A2979 RMK AO2 SLP083 T02440189 10306 20244 56006 $

TAF (pilot weather forecast)

Closest forecast is Manchester-Boston Regional Airport, 25.4 nm (47.0 km) ENE. Retrieved 2019/07/21 06:21 UTC (11 seconds ago):

TAF KMHT 210520Z 2106/2206 22004KT P6SM BKN250 FM211400 28011G18KT P6SM FEW100 SCT250